createdAt,value
2018-09-05T00:03:39.994Z,16.90
2018-09-05T00:08:43.137Z,16.80
2018-09-05T00:13:46.241Z,16.80
2018-09-05T00:18:49.418Z,16.80
2018-09-05T00:23:52.542Z,16.70
2018-09-05T00:28:55.649Z,16.70
2018-09-05T00:33:58.865Z,16.70
2018-09-05T00:39:01.993Z,16.60
2018-09-05T00:44:05.125Z,16.60
2018-09-05T00:49:08.235Z,16.60
2018-09-05T00:54:11.352Z,16.60
2018-09-05T00:59:16.323Z,16.60
2018-09-05T01:04:19.455Z,16.60
2018-09-05T01:09:22.569Z,16.70
2018-09-05T01:14:25.684Z,16.70
2018-09-05T01:19:28.821Z,16.70
2018-09-05T01:24:31.947Z,16.70
2018-09-05T01:29:36.429Z,16.80
2018-09-05T01:34:41.273Z,16.80
2018-09-05T01:39:44.430Z,16.90
2018-09-05T01:44:47.566Z,16.90
2018-09-05T01:49:50.685Z,16.90
2018-09-05T01:54:53.804Z,17.00
2018-09-05T01:59:56.931Z,17.10
2018-09-05T02:05:00.050Z,17.10
2018-09-05T02:10:03.177Z,17.20
2018-09-05T02:15:06.330Z,17.20
2018-09-05T02:20:09.447Z,17.20
2018-09-05T02:25:12.537Z,17.30
2018-09-05T02:30:15.741Z,17.30
2018-09-05T02:35:18.844Z,17.30
2018-09-05T02:40:22.000Z,17.40
2018-09-05T02:45:25.110Z,17.40
2018-09-05T02:50:28.243Z,17.50
2018-09-05T02:55:36.941Z,17.50
2018-09-05T03:00:40.044Z,17.50
2018-09-05T03:05:43.148Z,17.50
2018-09-05T03:10:46.254Z,17.50
2018-09-05T03:15:49.418Z,17.50
2018-09-05T03:20:52.521Z,17.60
2018-09-05T03:25:56.801Z,17.60
2018-09-05T03:30:59.898Z,17.60
2018-09-05T03:36:02.979Z,17.60
2018-09-05T03:41:06.338Z,17.60
2018-09-05T03:46:09.420Z,17.60
2018-09-05T03:51:12.542Z,17.60
2018-09-05T03:56:15.630Z,17.60
2018-09-05T04:01:18.714Z,17.60
2018-09-05T04:06:23.591Z,17.70
2018-09-05T04:11:26.741Z,17.70
2018-09-05T04:16:29.815Z,17.70
2018-09-05T04:21:39.490Z,17.70
2018-09-05T04:26:42.574Z,17.70
2018-09-05T04:31:45.714Z,17.70
2018-09-05T04:36:48.830Z,17.70
2018-09-05T04:41:51.925Z,17.70
2018-09-05T04:46:55.027Z,17.70
2018-09-05T04:51:58.141Z,17.70
2018-09-05T04:57:01.469Z,17.70
2018-09-05T05:02:04.590Z,17.70
2018-09-05T05:07:07.700Z,17.70
2018-09-05T05:12:10.799Z,17.70
2018-09-05T05:17:13.910Z,17.70
2018-09-05T05:22:17.025Z,17.70
2018-09-05T05:27:20.123Z,17.70
2018-09-05T05:32:23.247Z,17.70
2018-09-05T05:37:26.361Z,17.70
2018-09-05T05:42:29.461Z,17.70
2018-09-05T05:47:33.357Z,17.70
2018-09-05T05:52:36.474Z,17.70
2018-09-05T05:57:39.580Z,17.70
2018-09-05T06:02:42.694Z,17.80
2018-09-05T06:07:45.794Z,17.80
2018-09-05T06:12:48.905Z,17.80
2018-09-05T06:17:52.017Z,17.90
2018-09-05T06:22:55.280Z,17.90
2018-09-05T06:27:58.430Z,18.00
2018-09-05T06:33:01.530Z,18.10
2018-09-05T06:38:04.631Z,18.30
2018-09-05T06:43:07.733Z,18.40
2018-09-05T06:48:10.830Z,18.60
2018-09-05T06:53:13.907Z,18.80
2018-09-05T06:58:17.004Z,18.90
2018-09-05T07:03:20.361Z,19.00
2018-09-05T07:08:23.456Z,19.10
2018-09-05T07:13:26.517Z,19.20
2018-09-05T07:18:29.601Z,19.30
2018-09-05T07:23:32.716Z,19.40
2018-09-05T07:28:35.821Z,19.50
2018-09-05T07:33:38.912Z,19.50
2018-09-05T07:38:42.042Z,19.60
2018-09-05T07:43:45.176Z,19.70
2018-09-05T07:48:48.285Z,19.80
2018-09-05T07:53:51.400Z,19.90
2018-09-05T07:58:54.513Z,20.00
2018-09-05T08:03:57.836Z,20.10
2018-09-05T08:09:00.937Z,20.30
2018-09-05T08:14:04.045Z,20.30
2018-09-05T08:19:07.147Z,20.40
2018-09-05T08:24:10.261Z,20.50
2018-09-05T08:29:13.406Z,20.60
2018-09-05T08:34:16.480Z,20.80
2018-09-05T08:39:19.574Z,20.90
2018-09-05T08:44:22.779Z,21.00
2018-09-05T08:49:25.757Z,21.20
2018-09-05T08:54:32.750Z,21.30
2018-09-05T08:59:35.849Z,21.50
2018-09-05T09:04:39.017Z,21.70
2018-09-05T09:09:42.056Z,21.90
2018-09-05T09:14:45.145Z,22.10
2018-09-05T09:19:48.263Z,22.30
2018-09-05T09:24:51.396Z,22.50
2018-09-05T09:29:54.525Z,22.80
2018-09-05T09:34:57.682Z,23.10
2018-09-05T09:40:00.786Z,23.50
2018-09-05T09:45:03.882Z,23.90
2018-09-05T09:50:06.971Z,24.30
2018-09-05T09:55:10.074Z,24.70
2018-09-05T10:00:17.421Z,25.10
2018-09-05T10:05:26.029Z,25.50
2018-09-05T10:10:34.579Z,26.10
2018-09-05T10:15:43.067Z,26.60
2018-09-05T10:20:46.152Z,27.00
2018-09-05T10:25:49.226Z,27.50
2018-09-05T10:30:52.292Z,28.00
2018-09-05T10:35:55.425Z,28.50
2018-09-05T10:40:58.525Z,28.80
2018-09-05T10:46:01.590Z,29.30
2018-09-05T10:51:04.810Z,29.30
2018-09-05T10:56:07.894Z,29.30
2018-09-05T11:01:10.998Z,29.20
2018-09-05T11:06:14.076Z,29.10
2018-09-05T11:11:17.193Z,29.00
2018-09-05T11:16:20.306Z,29.20
2018-09-05T11:21:23.461Z,29.50
2018-09-05T11:26:26.535Z,29.70
2018-09-05T11:31:29.634Z,30.00
2018-09-05T11:36:32.873Z,30.30
2018-09-05T11:41:35.974Z,30.40
2018-09-05T11:46:39.671Z,30.30
2018-09-05T11:51:42.781Z,30.10
2018-09-05T11:56:45.870Z,29.90
2018-09-05T12:01:48.970Z,29.80
2018-09-05T12:06:52.098Z,29.60
2018-09-05T12:11:55.223Z,29.40
2018-09-05T12:16:58.313Z,29.30
2018-09-05T12:22:01.396Z,29.10
2018-09-05T12:27:04.465Z,28.90
2018-09-05T12:32:07.521Z,28.80
2018-09-05T12:37:10.786Z,28.90
2018-09-05T12:42:13.866Z,29.10
2018-09-05T12:47:16.937Z,29.20
2018-09-05T12:52:20.021Z,29.40
2018-09-05T12:57:23.110Z,29.70
2018-09-05T13:02:26.190Z,29.90
2018-09-05T13:07:29.299Z,30.00
2018-09-05T13:12:32.422Z,30.20
2018-09-05T13:17:35.545Z,30.30
2018-09-05T13:22:38.646Z,30.40
2018-09-05T13:27:41.723Z,30.50
2018-09-05T13:32:44.791Z,30.60
2018-09-05T13:37:47.889Z,30.80
2018-09-05T13:42:50.978Z,31.10
2018-09-05T13:53:03.658Z,31.40
2018-09-05T13:58:06.734Z,31.30
2018-09-05T14:03:09.805Z,31.10
2018-09-05T14:08:12.953Z,30.80
2018-09-05T14:13:16.026Z,30.70
2018-09-05T14:18:19.097Z,30.50
2018-09-05T14:23:22.354Z,30.40
2018-09-05T14:28:25.495Z,29.90
2018-09-05T14:33:28.639Z,29.60
2018-09-05T14:38:31.761Z,29.30
2018-09-05T14:43:34.866Z,29.20
2018-09-05T14:48:37.992Z,29.20
2018-09-05T14:53:41.074Z,29.20
2018-09-05T14:58:44.169Z,29.20
2018-09-05T15:03:47.271Z,29.20
2018-09-05T15:08:50.381Z,29.20
2018-09-05T15:13:53.477Z,29.20
2018-09-05T15:18:56.568Z,29.20
2018-09-05T15:23:59.760Z,29.20
2018-09-05T15:29:02.930Z,29.20
2018-09-05T15:34:06.890Z,29.10
2018-09-05T15:39:10.801Z,29.00
2018-09-05T15:44:13.921Z,29.00
2018-09-05T15:49:17.114Z,28.90
2018-09-05T15:54:20.210Z,28.90
2018-09-05T15:59:24.052Z,28.80
2018-09-05T16:04:27.173Z,28.70
2018-09-05T16:09:30.320Z,28.60
2018-09-05T16:14:33.490Z,28.60
2018-09-05T16:19:36.704Z,28.40
2018-09-05T16:24:39.879Z,28.40
2018-09-05T16:29:43.042Z,28.20
2018-09-05T16:34:46.175Z,28.00
2018-09-05T16:39:49.307Z,27.70
2018-09-05T16:44:52.438Z,27.50
2018-09-05T16:49:55.836Z,27.20
2018-09-05T16:54:59.453Z,26.90
2018-09-05T17:00:02.554Z,26.50
2018-09-05T17:05:05.683Z,26.30
2018-09-05T17:10:08.783Z,26.00
2018-09-05T17:15:11.890Z,25.80
2018-09-05T17:20:15.056Z,25.60
2018-09-05T17:25:18.188Z,25.30
2018-09-05T17:30:21.704Z,25.20
2018-09-05T17:35:24.837Z,25.00
2018-09-05T17:40:27.938Z,24.90
2018-09-05T17:45:31.120Z,24.80
2018-09-05T17:50:34.254Z,24.60
2018-09-05T17:55:37.384Z,24.50
2018-09-05T18:00:42.022Z,24.30
2018-09-05T18:05:45.116Z,24.20
2018-09-05T18:10:48.252Z,24.10
2018-09-05T18:15:52.222Z,23.90
2018-09-05T18:20:55.398Z,23.80
2018-09-05T18:25:58.978Z,23.60
2018-09-05T18:31:02.753Z,23.40
2018-09-05T18:36:06.527Z,23.20
2018-09-05T18:41:10.299Z,23.00
2018-09-05T18:46:14.723Z,22.80
2018-09-05T18:56:27.894Z,22.60
2018-09-05T19:01:31.556Z,22.50
2018-09-05T19:06:35.228Z,22.40
2018-09-05T19:11:39.271Z,22.30
2018-09-05T19:16:43.042Z,22.10
2018-09-05T19:21:46.385Z,22.00
2018-09-05T19:26:49.944Z,21.80
2018-09-05T19:31:53.569Z,21.70
2018-09-05T19:36:56.892Z,21.60
2018-09-05T19:42:00.298Z,21.50
2018-09-05T19:47:03.535Z,21.40
2018-09-05T19:52:06.769Z,21.30
2018-09-05T19:57:10.147Z,21.20
2018-09-05T20:02:13.634Z,21.10
2018-09-05T20:07:16.741Z,21.00
2018-09-05T20:12:20.318Z,20.90
2018-09-05T20:17:23.940Z,20.80
2018-09-05T20:22:27.594Z,20.80
2018-09-05T20:27:31.126Z,20.70
2018-09-05T20:32:34.264Z,20.60
2018-09-05T20:37:37.489Z,20.50
2018-09-05T20:42:40.657Z,20.50
2018-09-05T20:47:44.817Z,20.50
2018-09-05T20:52:48.469Z,20.40
2018-09-05T20:57:51.947Z,20.30
2018-09-05T21:02:55.093Z,20.20
2018-09-05T21:07:58.197Z,20.10
2018-09-05T21:13:01.291Z,20.00
2018-09-05T21:18:04.494Z,19.90
2018-09-05T21:23:07.720Z,19.80
2018-09-05T21:28:10.784Z,19.80
2018-09-05T21:33:14.006Z,19.70
2018-09-05T21:38:17.088Z,19.60
2018-09-05T21:43:20.283Z,19.50
2018-09-05T21:48:23.699Z,19.50
2018-09-05T21:53:26.935Z,19.40
2018-09-05T21:58:30.337Z,19.40
2018-09-05T22:03:33.431Z,19.30
2018-09-05T22:08:36.675Z,19.20
2018-09-05T22:13:40.106Z,19.20
2018-09-05T22:18:43.408Z,19.10
2018-09-05T22:23:46.703Z,19.00
2018-09-05T22:28:49.943Z,18.90
2018-09-05T22:33:53.038Z,18.90
2018-09-05T22:38:56.104Z,18.80
2018-09-05T22:44:10.795Z,18.80
2018-09-05T22:51:40.387Z,18.70
2018-09-05T22:58:09.614Z,18.60
2018-09-05T23:03:24.145Z,18.50
2018-09-05T23:08:33.742Z,18.40
2018-09-05T23:13:48.397Z,18.30
2018-09-05T23:19:06.872Z,18.30
2018-09-05T23:24:10.697Z,18.20
2018-09-05T23:29:13.841Z,18.10
2018-09-05T23:34:16.970Z,18.00
2018-09-05T23:39:20.087Z,18.00
2018-09-05T23:44:23.342Z,18.00
2018-09-05T23:49:26.452Z,17.90
2018-09-05T23:54:29.586Z,17.80
2018-09-05T23:59:32.747Z,17.80
